createdAt,value
2017-08-20T00:02:20.221Z,97157.91
2017-08-20T00:04:45.983Z,97158.50
2017-08-20T00:07:11.731Z,97158.76
2017-08-20T00:09:37.523Z,97164.52
2017-08-20T00:12:03.294Z,97162.28
2017-08-20T00:14:29.047Z,97166.03
2017-08-20T00:16:54.825Z,97165.28
2017-08-20T00:19:20.572Z,97164.06
2017-08-20T00:21:46.371Z,97161.45
2017-08-20T00:24:12.163Z,97170.52
2017-08-20T00:26:38.129Z,97168.84
2017-08-20T00:29:03.876Z,97172.63
2017-08-20T00:31:29.639Z,97173.27
2017-08-20T00:33:55.483Z,97172.42
2017-08-20T00:36:21.247Z,97163.25
2017-08-20T00:38:47.015Z,97172.97
2017-08-20T00:41:12.815Z,97173.61
2017-08-20T00:43:38.638Z,97172.55
2017-08-20T00:46:04.403Z,97174.22
2017-08-20T00:48:30.219Z,97176.52
2017-08-20T00:50:56.007Z,97172.06
2017-08-20T00:53:21.783Z,97174.32
2017-08-20T00:55:47.658Z,97174.23
2017-08-20T00:58:13.470Z,97176.34
2017-08-20T01:00:39.235Z,97176.46
2017-08-20T01:03:05.003Z,97182.27
2017-08-20T01:05:30.862Z,97179.49
2017-08-20T01:07:56.623Z,97180.16
2017-08-20T01:10:22.388Z,97180.98
2017-08-20T01:12:48.178Z,97182.16
2017-08-20T01:15:13.932Z,97184.62
2017-08-20T01:17:39.719Z,97181.05
2017-08-20T01:20:05.488Z,97179.97
2017-08-20T01:22:31.296Z,97186.08
2017-08-20T01:24:57.039Z,97178.60
2017-08-20T01:27:22.836Z,97183.01
2017-08-20T01:29:48.588Z,97185.20
2017-08-20T01:32:14.339Z,97187.49
2017-08-20T01:34:40.182Z,97194.98
2017-08-20T01:37:05.971Z,97188.11
2017-08-20T01:39:31.734Z,97179.63
2017-08-20T01:41:57.515Z,97186.64
2017-08-20T01:44:23.283Z,97187.41
2017-08-20T01:46:49.023Z,97191.88
2017-08-20T01:49:14.827Z,97196.87
2017-08-20T01:51:40.590Z,97196.23
2017-08-20T01:54:06.344Z,97195.71
2017-08-20T01:56:32.127Z,97200.22
2017-08-20T01:58:57.946Z,97202.73
2017-08-20T02:01:23.691Z,97200.91
2017-08-20T02:03:49.555Z,97201.11
2017-08-20T02:06:15.324Z,97195.98
2017-08-20T02:08:41.127Z,97192.78
2017-08-20T02:11:06.876Z,97201.59
2017-08-20T02:13:32.625Z,97196.65
2017-08-20T02:15:58.406Z,97196.32
2017-08-20T02:18:24.180Z,97199.08
2017-08-20T02:20:49.934Z,97201.07
2017-08-20T02:23:15.729Z,97202.12
2017-08-20T02:25:41.523Z,97209.02
2017-08-20T02:28:07.303Z,97210.86
2017-08-20T02:30:33.056Z,97216.30
2017-08-20T02:32:58.831Z,97215.38
2017-08-20T02:35:24.643Z,97223.15
2017-08-20T02:37:50.491Z,97219.98
2017-08-20T02:40:16.262Z,97220.13
2017-08-20T02:42:42.035Z,97216.22
2017-08-20T02:45:07.783Z,97218.92
2017-08-20T02:47:33.604Z,97218.14
2017-08-20T02:49:59.350Z,97216.52
2017-08-20T02:52:25.099Z,97214.50
2017-08-20T02:54:50.981Z,97212.34
2017-08-20T02:57:16.747Z,97215.02
2017-08-20T02:59:42.559Z,97216.45
2017-08-20T03:02:08.322Z,97214.38
2017-08-20T03:04:34.054Z,97219.95
2017-08-20T03:06:59.846Z,97217.05
2017-08-20T03:09:25.627Z,97219.73
2017-08-20T03:11:51.364Z,97219.67
2017-08-20T03:14:17.154Z,97215.23
2017-08-20T03:16:42.920Z,97206.16
2017-08-20T03:19:08.675Z,97204.56
2017-08-20T03:21:34.478Z,97202.15
2017-08-20T03:24:00.338Z,97200.47
2017-08-20T03:26:26.124Z,97202.27
2017-08-20T03:28:51.906Z,97204.19
2017-08-20T03:31:17.655Z,97212.02
2017-08-20T03:33:43.531Z,97210.32
2017-08-20T03:36:09.308Z,97214.73
2017-08-20T03:38:35.075Z,97213.53
2017-08-20T03:41:00.902Z,97204.95
2017-08-20T03:43:26.671Z,97206.85
2017-08-20T03:45:52.470Z,97202.34
2017-08-20T03:48:18.267Z,97205.84
2017-08-20T03:50:44.055Z,97209.19
2017-08-20T03:53:09.806Z,97205.05
2017-08-20T03:55:35.578Z,97213.70
2017-08-20T03:58:01.342Z,97215.23
2017-08-20T04:00:27.114Z,97212.30
2017-08-20T04:02:52.895Z,97216.77
2017-08-20T04:05:18.635Z,97215.88
2017-08-20T04:07:44.441Z,97218.20
2017-08-20T04:10:10.210Z,97217.55
2017-08-20T04:12:35.943Z,97217.52
2017-08-20T04:15:01.763Z,97223.97
2017-08-20T04:17:27.515Z,97230.98
2017-08-20T04:19:53.271Z,97227.61
2017-08-20T04:22:19.127Z,97233.73
2017-08-20T04:24:44.922Z,97237.76
2017-08-20T04:27:10.675Z,97236.94
2017-08-20T04:29:36.463Z,97238.67
2017-08-20T04:32:02.339Z,97241.72
2017-08-20T04:34:28.107Z,97245.32
2017-08-20T04:36:53.874Z,97242.73
2017-08-20T04:39:19.643Z,97246.27
2017-08-20T04:41:45.401Z,97244.19
2017-08-20T04:44:11.182Z,97242.44
2017-08-20T04:46:36.955Z,97248.52
2017-08-20T04:49:02.694Z,97256.42
2017-08-20T04:51:28.466Z,97249.09
2017-08-20T04:53:54.202Z,97254.69
2017-08-20T04:56:20.007Z,97258.19
2017-08-20T04:58:45.778Z,97255.42
2017-08-20T05:01:11.523Z,97260.80
2017-08-20T05:03:37.343Z,97264.41
2017-08-20T05:06:03.087Z,97262.34
2017-08-20T05:08:28.830Z,97270.93
2017-08-20T05:10:54.611Z,97271.11
2017-08-20T05:13:20.351Z,97271.30
2017-08-20T05:15:46.135Z,97280.05
2017-08-20T05:18:11.951Z,97282.19
2017-08-20T05:20:37.710Z,97284.75
2017-08-20T05:23:03.483Z,97291.48
2017-08-20T05:25:29.231Z,97283.81
2017-08-20T05:27:55.031Z,97295.34
2017-08-20T05:30:20.834Z,97290.84
2017-08-20T05:32:46.600Z,97294.39
2017-08-20T05:35:12.347Z,97295.26
2017-08-20T05:37:38.171Z,97285.80
2017-08-20T05:40:03.940Z,97286.51
2017-08-20T05:42:29.719Z,97284.08
2017-08-20T05:44:55.458Z,97294.77
2017-08-20T05:47:21.267Z,97300.88
2017-08-20T05:49:47.063Z,97296.88
2017-08-20T05:52:12.936Z,97297.72
2017-08-20T05:54:39.303Z,97300.95
2017-08-20T05:57:05.146Z,97300.20
2017-08-20T05:59:30.927Z,97301.13
2017-08-20T06:01:56.686Z,97300.32
2017-08-20T06:04:22.551Z,97301.20
2017-08-20T06:06:48.302Z,97310.94
2017-08-20T06:09:14.080Z,97309.72
2017-08-20T06:11:39.896Z,97297.69
2017-08-20T06:14:05.708Z,97303.30
2017-08-20T06:16:31.471Z,97306.78
2017-08-20T06:18:57.258Z,97299.30
2017-08-20T06:21:23.022Z,97304.51
2017-08-20T06:23:48.781Z,97309.73
2017-08-20T06:26:14.666Z,97307.73
2017-08-20T06:28:40.439Z,97309.78
2017-08-20T06:31:06.255Z,97309.05
2017-08-20T06:33:32.018Z,97312.08
2017-08-20T06:35:57.763Z,97310.92
2017-08-20T06:38:23.548Z,97317.42
2017-08-20T06:40:49.323Z,97324.16
2017-08-20T06:43:15.147Z,97324.97
2017-08-20T06:45:40.928Z,97319.36
2017-08-20T06:48:06.727Z,97316.73
2017-08-20T06:50:32.484Z,97320.00
2017-08-20T06:52:58.276Z,97319.23
2017-08-20T06:55:24.067Z,97322.28
2017-08-20T06:57:49.807Z,97327.75
2017-08-20T07:00:15.599Z,97326.58
2017-08-20T07:02:41.364Z,97329.21
2017-08-20T07:05:07.113Z,97332.54
2017-08-20T07:07:32.904Z,97329.22
2017-08-20T07:09:58.671Z,97325.05
2017-08-20T07:12:24.462Z,97325.19
2017-08-20T07:14:50.199Z,97323.10
2017-08-20T07:17:16.155Z,97324.38
2017-08-20T07:19:41.911Z,97324.69
2017-08-20T07:22:07.663Z,97327.03
2017-08-20T07:24:33.447Z,97324.61
2017-08-20T07:26:59.247Z,97326.98
2017-08-20T07:29:24.995Z,97323.39
2017-08-20T07:31:50.767Z,97317.58
2017-08-20T07:34:16.650Z,97326.14
2017-08-20T07:36:42.409Z,97327.45
2017-08-20T07:39:08.207Z,97335.06
2017-08-20T07:41:33.942Z,97335.34
2017-08-20T07:43:59.694Z,97348.91
2017-08-20T07:46:25.501Z,97343.21
2017-08-20T07:48:51.249Z,97342.95
2017-08-20T07:51:17.021Z,97338.89
2017-08-20T07:53:42.912Z,97341.51
2017-08-20T07:56:08.695Z,97345.39
2017-08-20T07:58:34.462Z,97344.83
2017-08-20T08:01:00.284Z,97344.27
2017-08-20T08:03:26.059Z,97345.86
2017-08-20T08:05:51.810Z,97349.26
2017-08-20T08:08:17.686Z,97354.36
2017-08-20T08:10:43.448Z,97355.17
2017-08-20T08:13:09.254Z,97358.47
2017-08-20T08:15:35.005Z,97351.04
2017-08-20T08:18:00.894Z,97352.27
2017-08-20T08:20:26.651Z,97354.16
2017-08-20T08:22:52.407Z,97348.17
2017-08-20T08:25:18.270Z,97351.06
2017-08-20T08:27:44.017Z,97356.83
2017-08-20T08:30:09.771Z,97345.86
2017-08-20T08:32:35.563Z,97363.52
2017-08-20T08:35:01.573Z,97358.84
2017-08-20T08:37:27.739Z,97364.50
2017-08-20T08:39:53.895Z,97357.81
2017-08-20T08:42:19.854Z,97361.13
2017-08-20T08:44:45.610Z,97362.48
2017-08-20T08:47:11.399Z,97363.50
2017-08-20T08:49:37.219Z,97356.58
2017-08-20T08:52:02.963Z,97363.61
2017-08-20T08:54:28.731Z,97366.35
2017-08-20T08:56:54.558Z,97362.84
2017-08-20T08:59:20.338Z,97352.95
2017-08-20T09:01:46.090Z,97366.80
2017-08-20T09:04:11.974Z,97372.57
2017-08-20T09:06:37.728Z,97357.56
2017-08-20T09:09:03.516Z,97366.88
2017-08-20T09:11:29.301Z,97360.23
2017-08-20T09:13:55.065Z,97365.94
2017-08-20T09:16:20.863Z,97365.89
2017-08-20T09:18:46.687Z,97365.02
2017-08-20T09:21:12.486Z,97366.88
2017-08-20T09:23:38.251Z,97372.38
2017-08-20T09:26:04.022Z,97351.88
2017-08-20T09:28:29.831Z,97374.50
2017-08-20T09:30:55.608Z,97374.64
2017-08-20T09:33:21.436Z,97376.52
2017-08-20T09:35:47.252Z,97366.98
2017-08-20T09:38:13.011Z,97376.70
2017-08-20T09:40:38.768Z,97383.72
2017-08-20T09:43:04.561Z,97369.31
2017-08-20T09:45:30.445Z,97377.81
2017-08-20T09:47:56.288Z,97375.31
2017-08-20T09:50:22.043Z,97378.47
2017-08-20T09:52:47.851Z,97373.56
2017-08-20T09:55:13.647Z,97380.04
2017-08-20T09:57:39.436Z,97385.52
2017-08-20T10:00:05.483Z,97385.23
2017-08-20T10:02:31.327Z,97384.86
2017-08-20T10:04:57.195Z,97385.73
2017-08-20T10:07:22.955Z,97377.38
2017-08-20T10:09:48.745Z,97374.55
2017-08-20T10:12:14.552Z,97376.87
2017-08-20T10:14:40.313Z,97387.13
2017-08-20T10:17:06.174Z,97376.63
2017-08-20T10:19:31.935Z,97375.21
2017-08-20T10:21:57.730Z,97362.84
2017-08-20T10:24:23.491Z,97361.78
2017-08-20T10:26:49.247Z,97364.66
2017-08-20T10:29:15.059Z,97357.53
2017-08-20T10:31:40.875Z,97359.69
2017-08-20T10:34:06.619Z,97360.06
2017-08-20T10:36:33.227Z,97352.84
2017-08-20T10:38:59.051Z,97349.63
2017-08-20T10:41:24.803Z,97345.98
2017-08-20T10:43:50.575Z,97341.88
2017-08-20T10:46:16.407Z,97339.31
2017-08-20T10:48:42.244Z,97339.48
2017-08-20T10:51:08.035Z,97333.41
2017-08-20T10:53:33.796Z,97316.09
2017-08-20T10:55:59.531Z,97329.79
2017-08-20T10:58:25.310Z,97325.84
2017-08-20T11:00:51.067Z,97327.16
2017-08-20T11:03:16.838Z,97331.55
2017-08-20T11:05:42.602Z,97328.68
2017-08-20T11:08:08.442Z,97325.31
2017-08-20T11:10:34.182Z,97327.08
2017-08-20T11:12:59.939Z,97327.16
2017-08-20T11:15:25.839Z,97331.66
2017-08-20T11:17:51.690Z,97322.91
2017-08-20T11:20:17.474Z,97322.17
2017-08-20T11:22:43.247Z,97323.82
2017-08-20T11:25:09.022Z,97322.12
2017-08-20T11:27:34.837Z,97320.69
2017-08-20T11:30:00.599Z,97312.34
2017-08-20T11:32:26.385Z,97321.27
2017-08-20T11:34:52.174Z,97318.86
2017-08-20T11:37:17.912Z,97314.45
2017-08-20T11:39:43.691Z,97325.97
2017-08-20T11:42:09.516Z,97313.97
2017-08-20T11:44:35.275Z,97306.97
2017-08-20T11:47:01.095Z,97313.61
2017-08-20T11:49:26.839Z,97313.43
2017-08-20T11:51:52.639Z,97308.95
2017-08-20T11:54:18.384Z,97307.44
2017-08-20T11:56:44.143Z,97302.80
2017-08-20T11:59:09.918Z,97308.05
2017-08-20T12:01:36.558Z,97307.30
2017-08-20T12:04:02.378Z,97313.28
2017-08-20T12:06:28.131Z,97305.67
2017-08-20T12:08:53.926Z,97316.14
2017-08-20T12:11:19.690Z,97309.48
2017-08-20T12:13:45.486Z,97315.36
2017-08-20T12:16:11.247Z,97316.52
2017-08-20T12:18:37.015Z,97311.94
2017-08-20T12:21:02.832Z,97313.38
2017-08-20T12:23:28.615Z,97313.48
2017-08-20T12:25:54.434Z,97307.84
2017-08-20T12:28:20.204Z,97313.88
2017-08-20T12:30:45.981Z,97324.79
2017-08-20T12:33:11.887Z,97317.84
2017-08-20T12:35:37.663Z,97318.88
2017-08-20T12:38:03.439Z,97321.42
2017-08-20T12:40:29.259Z,97320.66
2017-08-20T12:42:55.147Z,97327.50
2017-08-20T12:45:20.969Z,97321.91
2017-08-20T12:47:46.834Z,97320.67
2017-08-20T12:50:13.267Z,97314.05
2017-08-20T12:52:39.593Z,97306.14
2017-08-20T12:55:07.332Z,97306.76
2017-08-20T12:57:33.306Z,97300.91
2017-08-20T12:59:59.102Z,97319.54
2017-08-20T13:02:24.922Z,97320.78
2017-08-20T13:04:50.676Z,97320.76
2017-08-20T13:07:16.446Z,97314.95
2017-08-20T13:09:42.315Z,97320.19
2017-08-20T13:12:08.099Z,97319.89
2017-08-20T13:14:33.899Z,97310.80
2017-08-20T13:16:59.647Z,97309.35
2017-08-20T13:19:25.426Z,97316.97
2017-08-20T13:21:51.212Z,97307.35
2017-08-20T13:24:16.958Z,97305.52
2017-08-20T13:26:42.708Z,97313.09
2017-08-20T13:29:08.470Z,97315.23
2017-08-20T13:31:34.275Z,97321.09
2017-08-20T13:34:00.028Z,97324.23
2017-08-20T13:36:25.854Z,97314.89
2017-08-20T13:38:51.623Z,97319.64
2017-08-20T13:41:17.376Z,97311.44
2017-08-20T13:43:43.162Z,97322.96
2017-08-20T13:46:08.925Z,97316.60
2017-08-20T13:48:34.783Z,97312.70
2017-08-20T13:51:00.551Z,97312.00
2017-08-20T13:53:26.325Z,97312.33
2017-08-20T13:55:52.212Z,97309.49
2017-08-20T13:58:17.951Z,97328.44
2017-08-20T14:00:45.803Z,97317.89
2017-08-20T14:03:11.633Z,97312.14
2017-08-20T14:05:37.380Z,97311.66
2017-08-20T14:08:03.162Z,97314.09
2017-08-20T14:10:28.915Z,97322.70
2017-08-20T14:12:54.786Z,97309.24
2017-08-20T14:15:20.530Z,97308.41
2017-08-20T14:17:46.337Z,97315.57
2017-08-20T14:20:12.122Z,97322.98
2017-08-20T14:22:37.912Z,97316.48
2017-08-20T14:25:03.717Z,97316.80
2017-08-20T14:27:29.488Z,97312.11
2017-08-20T14:29:55.246Z,97315.95
2017-08-20T14:32:21.026Z,97308.80
2017-08-20T14:34:46.791Z,97307.46
2017-08-20T14:37:12.599Z,97313.61
2017-08-20T14:39:38.380Z,97308.63
2017-08-20T14:42:04.146Z,97312.00
2017-08-20T14:44:30.018Z,97314.47
2017-08-20T14:46:55.783Z,97315.71
2017-08-20T14:49:21.550Z,97315.59
2017-08-20T14:51:47.331Z,97311.59
2017-08-20T14:54:13.177Z,97314.20
2017-08-20T14:56:38.929Z,97314.79
2017-08-20T14:59:04.695Z,97312.52
2017-08-20T15:01:30.444Z,97304.14
2017-08-20T15:03:56.223Z,97312.59
2017-08-20T15:06:22.006Z,97306.38
2017-08-20T15:08:47.835Z,97306.47
2017-08-20T15:11:13.582Z,97316.48
2017-08-20T15:13:39.382Z,97307.84
2017-08-20T15:16:05.118Z,97306.06
2017-08-20T15:18:30.904Z,97313.23
2017-08-20T15:20:56.711Z,97312.25
2017-08-20T15:23:22.562Z,97317.17
2017-08-20T15:25:48.311Z,97308.42
2017-08-20T15:28:14.139Z,97315.63
2017-08-20T15:30:39.878Z,97317.84
2017-08-20T15:33:05.671Z,97316.80
2017-08-20T15:35:31.486Z,97326.96
2017-08-20T15:37:57.359Z,97324.36
2017-08-20T15:40:23.146Z,97316.94
2017-08-20T15:42:48.898Z,97318.54
2017-08-20T15:45:14.722Z,97324.08
2017-08-20T15:47:40.510Z,97320.80
2017-08-20T15:50:06.259Z,97322.00
2017-08-20T15:52:32.040Z,97317.06
2017-08-20T15:54:57.883Z,97314.20
2017-08-20T15:57:23.636Z,97308.59
2017-08-20T15:59:49.435Z,97311.48
2017-08-20T16:02:15.213Z,97308.98
2017-08-20T16:04:40.979Z,97310.83
2017-08-20T16:07:06.765Z,97316.58
2017-08-20T16:09:32.535Z,97319.56
2017-08-20T16:11:58.298Z,97320.36
2017-08-20T16:14:24.046Z,97325.13
2017-08-20T16:16:49.815Z,97321.52
2017-08-20T16:19:15.644Z,97326.83
2017-08-20T16:21:41.404Z,97316.14
2017-08-20T16:24:07.146Z,97322.89
2017-08-20T16:26:33.027Z,97320.70
2017-08-20T16:28:58.835Z,97320.31
2017-08-20T16:31:25.424Z,97320.13
2017-08-20T16:33:51.206Z,97321.61
2017-08-20T16:36:17.027Z,97320.84
2017-08-20T16:38:42.867Z,97315.55
2017-08-20T16:41:08.648Z,97307.27
2017-08-20T16:43:34.425Z,97315.51
2017-08-20T16:46:00.231Z,97315.68
2017-08-20T16:48:26.043Z,97313.97
2017-08-20T16:50:51.832Z,97315.61
2017-08-20T16:53:17.640Z,97312.17
2017-08-20T16:55:43.407Z,97316.00
2017-08-20T16:58:09.158Z,97318.30
2017-08-20T17:00:34.933Z,97315.59
2017-08-20T17:03:00.711Z,97317.26
2017-08-20T17:05:26.475Z,97321.00
2017-08-20T17:07:52.350Z,97324.96
2017-08-20T17:10:18.135Z,97332.66
2017-08-20T17:12:43.950Z,97323.32
2017-08-20T17:15:09.703Z,97322.80
2017-08-20T17:17:35.547Z,97318.91
2017-08-20T17:20:01.342Z,97324.09
2017-08-20T17:22:27.163Z,97324.63
2017-08-20T17:24:52.985Z,97319.02
2017-08-20T17:27:18.755Z,97327.11
2017-08-20T17:29:44.638Z,97331.22
2017-08-20T17:32:10.504Z,97323.62
2017-08-20T17:34:36.350Z,97332.02
2017-08-20T17:37:02.099Z,97327.20
2017-08-20T17:39:27.840Z,97332.03
2017-08-20T17:41:53.654Z,97337.88
2017-08-20T17:44:19.426Z,97338.30
2017-08-20T17:46:45.192Z,97342.26
2017-08-20T17:49:11.006Z,97344.15
2017-08-20T17:51:36.743Z,97343.64
2017-08-20T17:54:02.489Z,97339.26
2017-08-20T17:56:28.287Z,97340.98
2017-08-20T17:58:54.038Z,97344.34
2017-08-20T18:01:19.862Z,97348.65
2017-08-20T18:03:45.711Z,97344.19
2017-08-20T18:06:12.462Z,97344.56
2017-08-20T18:08:38.924Z,97348.84
2017-08-20T18:11:04.688Z,97345.82
2017-08-20T18:13:30.486Z,97349.55
2017-08-20T18:15:56.222Z,97358.34
2017-08-20T18:18:21.995Z,97364.99
2017-08-20T18:20:47.819Z,97354.94
2017-08-20T18:23:13.607Z,97359.07
2017-08-20T18:25:39.380Z,97355.88
2017-08-20T18:28:05.146Z,97356.95
2017-08-20T18:30:30.923Z,97360.19
2017-08-20T18:32:56.734Z,97361.08
2017-08-20T18:35:22.575Z,97361.26
2017-08-20T18:37:48.311Z,97363.23
2017-08-20T18:40:14.095Z,97364.17
2017-08-20T18:42:39.830Z,97375.35
2017-08-20T18:45:05.611Z,97366.36
2017-08-20T18:47:31.356Z,97374.21
2017-08-20T18:49:57.183Z,97374.55
2017-08-20T18:52:22.963Z,97371.23
2017-08-20T18:54:48.739Z,97376.06
2017-08-20T18:57:14.530Z,97371.39
2017-08-20T18:59:40.266Z,97367.19
2017-08-20T19:02:06.130Z,97374.89
2017-08-20T19:04:31.919Z,97381.38
2017-08-20T19:06:57.787Z,97380.78
2017-08-20T19:09:24.378Z,97380.75
2017-08-20T19:11:50.146Z,97382.58
2017-08-20T19:14:15.938Z,97379.76
2017-08-20T19:16:41.737Z,97380.78
2017-08-20T19:19:07.529Z,97374.61
2017-08-20T19:21:33.276Z,97384.52
2017-08-20T19:23:59.086Z,97399.62
2017-08-20T19:26:24.833Z,97401.75
2017-08-20T19:28:50.587Z,97401.87
2017-08-20T19:31:16.377Z,97395.91
2017-08-20T19:33:42.303Z,97391.69
2017-08-20T19:36:08.099Z,97401.56
2017-08-20T19:38:33.851Z,97403.03
2017-08-20T19:40:59.646Z,97401.36
2017-08-20T19:43:25.414Z,97398.69
2017-08-20T19:45:51.197Z,97402.35
2017-08-20T19:48:16.946Z,97409.45
2017-08-20T19:50:42.722Z,97402.13
2017-08-20T19:53:08.555Z,97401.64
2017-08-20T19:55:34.326Z,97407.48
2017-08-20T19:58:00.075Z,97409.19
2017-08-20T20:00:25.843Z,97408.91
2017-08-20T20:02:51.659Z,97409.06
2017-08-20T20:05:17.395Z,97424.98
2017-08-20T20:07:43.141Z,97419.55
2017-08-20T20:10:08.931Z,97424.06
2017-08-20T20:12:34.683Z,97429.45
2017-08-20T20:15:00.455Z,97436.03
2017-08-20T20:17:26.235Z,97437.58
2017-08-20T20:19:52.003Z,97437.72
2017-08-20T20:22:17.779Z,97438.06
2017-08-20T20:24:43.547Z,97436.69
2017-08-20T20:27:09.331Z,97440.41
2017-08-20T20:29:35.154Z,97432.52
2017-08-20T20:32:00.960Z,97442.64
2017-08-20T20:34:26.702Z,97438.22
2017-08-20T20:36:52.475Z,97438.20
2017-08-20T20:39:18.785Z,97436.52
2017-08-20T20:41:44.623Z,97430.66
2017-08-20T20:44:10.374Z,97439.73
2017-08-20T20:46:36.158Z,97444.23
2017-08-20T20:49:01.931Z,97446.09
2017-08-20T20:51:27.705Z,97450.41
2017-08-20T20:53:53.535Z,97447.69
2017-08-20T20:56:19.330Z,97454.58
2017-08-20T20:58:45.066Z,97454.20
2017-08-20T21:01:10.831Z,97453.69
2017-08-20T21:03:36.607Z,97450.08
2017-08-20T21:06:02.511Z,97443.53
2017-08-20T21:08:28.298Z,97446.52
2017-08-20T21:10:54.039Z,97439.09
2017-08-20T21:13:19.842Z,97446.47
2017-08-20T21:15:45.650Z,97443.56
2017-08-20T21:18:11.421Z,97452.59
2017-08-20T21:20:37.206Z,97456.45
2017-08-20T21:23:02.971Z,97459.72
2017-08-20T21:25:28.719Z,97448.72
2017-08-20T21:27:54.503Z,97447.70
2017-08-20T21:30:20.292Z,97440.97
2017-08-20T21:32:46.088Z,97436.83
2017-08-20T21:35:11.842Z,97438.16
2017-08-20T21:37:37.683Z,97437.41
2017-08-20T21:40:03.539Z,97439.44
2017-08-20T21:42:29.333Z,97444.59
2017-08-20T21:44:55.099Z,97439.55
2017-08-20T21:47:20.876Z,97438.22
2017-08-20T21:49:46.622Z,97440.11
2017-08-20T21:52:12.434Z,97440.52
2017-08-20T21:54:39.172Z,97448.42
2017-08-20T21:57:05.149Z,97444.48
2017-08-20T21:59:30.935Z,97433.17
2017-08-20T22:01:56.691Z,97433.47
2017-08-20T22:04:22.479Z,97437.84
2017-08-20T22:06:48.219Z,97439.60
2017-08-20T22:09:14.013Z,97438.19
2017-08-20T22:11:39.763Z,97426.59
2017-08-20T22:14:05.541Z,97419.36
2017-08-20T22:16:31.283Z,97425.47
2017-08-20T22:18:57.135Z,97425.13
2017-08-20T22:21:22.962Z,97405.42
2017-08-20T22:23:48.742Z,97420.45
2017-08-20T22:26:14.479Z,97437.27
2017-08-20T22:28:40.335Z,97433.02
2017-08-20T22:31:06.163Z,97420.08
2017-08-20T22:33:31.902Z,97426.14
2017-08-20T22:35:57.712Z,97435.58
2017-08-20T22:38:23.471Z,97441.63
2017-08-20T22:40:49.246Z,97435.39
2017-08-20T22:43:15.031Z,97443.66
2017-08-20T22:45:40.802Z,97428.11
2017-08-20T22:48:06.571Z,97423.58
2017-08-20T22:50:32.333Z,97423.28
2017-08-20T22:52:58.131Z,97423.20
2017-08-20T22:55:23.913Z,97435.42
2017-08-20T22:57:49.674Z,97441.31
2017-08-20T23:00:15.471Z,97433.91
2017-08-20T23:02:41.219Z,97435.41
2017-08-20T23:05:06.979Z,97437.84
2017-08-20T23:07:32.774Z,97433.20
2017-08-20T23:09:58.519Z,97435.33
2017-08-20T23:12:24.335Z,97428.59
2017-08-20T23:14:50.131Z,97427.44
2017-08-20T23:17:15.871Z,97420.27
2017-08-20T23:19:41.638Z,97415.61
2017-08-20T23:22:07.415Z,97402.98
2017-08-20T23:24:33.151Z,97419.81
2017-08-20T23:26:58.949Z,97420.48
2017-08-20T23:29:24.687Z,97424.61
2017-08-20T23:31:50.455Z,97429.06
2017-08-20T23:34:16.235Z,97425.75
2017-08-20T23:36:41.981Z,97428.56
2017-08-20T23:39:07.754Z,97423.30
2017-08-20T23:41:33.538Z,97429.48
2017-08-20T23:43:59.271Z,97429.82
2017-08-20T23:46:25.039Z,97429.25
2017-08-20T23:48:50.831Z,97423.72
2017-08-20T23:51:16.581Z,97422.66
2017-08-20T23:53:42.355Z,97424.49
2017-08-20T23:56:08.204Z,97420.41
2017-08-20T23:58:33.970Z,97424.58
